Time;durP1;ratioP1;P1;durP2;ratioP2;P2;SDS_P1;SDS_P2;PMS_P1;PMS_P2;Temp;Humidity;BMP_temperature;BMP_pressure;BME280_temperature;BME280_humidity;BME280_pressure;Samples;Min_cycle;Max_cycle;Signal;HPM_P1;HPM_P2
2023/05/20 00:02:25;;;;;;;4.47;3.73;;;24.70;38.90;;;;;;4992768;28;20525;-81
2023/05/20 00:04:54;;;;;;;6.13;3.87;;;24.70;38.90;;;;;;4993949;28;20620;-81
2023/05/20 00:07:23;;;;;;;5.37;3.87;;;24.70;38.90;;;;;;4988983;28;20515;-80
2023/05/20 00:09:51;;;;;;;4.50;4.10;;;24.70;39.00;;;;;;4989157;28;20493;-80
2023/05/20 00:12:19;;;;;;;4.37;3.97;;;24.70;39.00;;;;;;4995869;28;20458;-79
2023/05/20 00:14:47;;;;;;;4.10;3.67;;;24.70;39.00;;;;;;4991691;28;20477;-79
2023/05/20 00:17:14;;;;;;;4.30;3.90;;;24.70;39.10;;;;;;4995641;28;20515;-80
2023/05/20 00:19:44;;;;;;;7.00;4.07;;;24.60;39.00;;;;;;4995649;28;20446;-80
2023/05/20 00:22:12;;;;;;;3.83;3.40;;;24.60;39.00;;;;;;4988391;28;20460;-80
2023/05/20 00:24:40;;;;;;;4.43;4.03;;;24.60;39.00;;;;;;4996845;28;20963;-80
2023/05/20 00:27:07;;;;;;;5.30;4.40;;;24.60;39.10;;;;;;4996634;28;20506;-80
2023/05/20 00:29:35;;;;;;;4.70;4.20;;;24.60;39.10;;;;;;4995681;28;20541;-80
2023/05/20 00:32:03;;;;;;;5.40;4.10;;;24.60;39.20;;;;;;4994132;28;20488;-80
2023/05/20 00:34:32;;;;;;;4.10;3.70;;;24.60;39.20;;;;;;4995188;28;20477;-80
2023/05/20 00:37:01;;;;;;;4.30;3.90;;;24.60;39.20;;;;;;4990881;28;20466;-78
2023/05/20 00:39:30;;;;;;;4.27;3.80;;;24.50;39.20;;;;;;4995758;28;20468;-80
2023/05/20 00:41:59;;;;;;;4.50;4.10;;;24.50;39.20;;;;;;4995762;28;20552;-80
2023/05/20 00:44:27;;;;;;;5.37;4.10;;;24.50;39.20;;;;;;4996123;28;20500;-79
2023/05/20 00:46:55;;;;;;;4.80;3.93;;;24.50;39.30;;;;;;4993779;28;20461;-79
2023/05/20 00:49:23;;;;;;;4.43;4.03;;;24.50;39.30;;;;;;4995704;28;20477;-81
2023/05/20 00:51:51;;;;;;;6.30;4.23;;;24.40;39.20;;;;;;5007102;28;20425;-78
2023/05/20 00:54:20;;;;;;;4.80;4.10;;;24.40;39.30;;;;;;4992547;28;20545;-79
2023/05/20 00:56:49;;;;;;;4.73;4.33;;;24.40;39.30;;;;;;4994617;28;20449;-80
2023/05/20 00:59:17;;;;;;;8.47;4.47;;;24.40;39.40;;;;;;4986652;28;20485;-80
2023/05/20 01:01:45;;;;;;;4.37;3.97;;;24.40;39.40;;;;;;4993209;28;20511;-80
2023/05/20 01:04:14;;;;;;;6.40;4.60;;;24.30;39.40;;;;;;4997416;28;20468;-79
2023/05/20 01:06:42;;;;;;;5.80;4.13;;;24.30;39.40;;;;;;4996862;28;20457;-80
2023/05/20 01:09:10;;;;;;;5.60;4.57;;;24.30;39.50;;;;;;4997460;28;20514;-79
2023/05/20 01:11:42;;;;;;;4.70;4.30;;;24.30;39.50;;;;;;4997771;28;20520;-80
2023/05/20 01:14:11;;;;;;;5.53;4.30;;;24.30;39.50;;;;;;4991832;28;20464;-80
2023/05/20 01:16:38;;;;;;;4.43;4.03;;;24.30;39.50;;;;;;4997248;28;20441;-81
2023/05/20 01:19:08;;;;;;;4.20;3.80;;;24.20;39.40;;;;;;4997900;28;20453;-79
2023/05/20 01:21:36;;;;;;;5.20;4.47;;;24.20;39.50;;;;;;4991526;28;20466;-80
2023/05/20 01:24:06;;;;;;;13.03;9.37;;;24.20;39.50;;;;;;4995196;28;20469;-80
2023/05/20 01:26:37;;;;;;;14.77;9.80;;;24.10;39.50;;;;;;4996630;28;20475;-80
2023/05/20 01:29:05;;;;;;;15.60;10.53;;;24.10;39.50;;;;;;4998307;28;20461;-81
2023/05/20 01:31:35;;;;;;;16.37;11.53;;;24.10;39.60;;;;;;4996960;28;20537;-82
2023/05/20 01:34:03;;;;;;;14.60;10.97;;;24.10;39.70;;;;;;4994118;28;20500;-80
2023/05/20 01:36:31;;;;;;;11.10;9.00;;;24.10;39.60;;;;;;4991461;28;20441;-79
2023/05/20 01:38:59;;;;;;;12.87;10.57;;;24.10;39.70;;;;;;4997804;28;20535;-80
2023/05/20 01:41:29;;;;;;;12.70;8.80;;;24.10;39.70;;;;;;4997632;28;20511;-80
2023/05/20 01:43:57;;;;;;;15.43;11.23;;;24.00;39.60;;;;;;4997760;28;20489;-81
2023/05/20 01:46:25;;;;;;;13.70;10.80;;;24.00;39.70;;;;;;4997043;28;20536;-80
2023/05/20 01:48:53;;;;;;;14.80;10.23;;;23.90;39.70;;;;;;4997248;28;20456;-81
2023/05/20 01:51:21;;;;;;;12.80;9.97;;;23.90;39.60;;;;;;4985177;28;20500;-81
2023/05/20 01:53:49;;;;;;;16.47;11.80;;;23.90;39.70;;;;;;4993774;28;20540;-82
2023/05/20 01:56:17;;;;;;;14.23;10.10;;;23.90;39.70;;;;;;4998348;28;20445;-80
2023/05/20 01:58:47;;;;;;;15.00;10.30;;;23.80;39.70;;;;;;4996428;28;20544;-80
2023/05/20 02:01:15;;;;;;;15.00;10.30;;;23.80;39.70;;;;;;4996772;28;20453;-79
2023/05/20 02:03:43;;;;;;;14.23;11.10;;;23.80;39.80;;;;;;4997162;28;20465;-81
2023/05/20 02:06:12;;;;;;;14.87;10.83;;;23.80;39.80;;;;;;4995545;28;20476;-81
2023/05/20 02:08:40;;;;;;;14.50;11.20;;;23.80;39.80;;;;;;4995861;28;20450;-81
2023/05/20 02:11:08;;;;;;;13.43;9.40;;;23.70;39.80;;;;;;4998657;28;20473;-80
2023/05/20 02:13:36;;;;;;;16.00;10.97;;;23.70;39.80;;;;;;4992578;28;20533;-81
2023/05/20 02:16:06;;;;;;;13.53;10.27;;;23.70;39.80;;;;;;4993939;28;20571;-81
2023/05/20 02:18:35;;;;;;;15.77;10.43;;;23.70;39.90;;;;;;4996967;28;20453;-81
2023/05/20 02:21:03;;;;;;;14.63;10.53;;;23.70;40.00;;;;;;4996275;28;20962;-81
2023/05/20 02:23:31;;;;;;;14.17;10.47;;;23.60;39.90;;;;;;4994517;28;20477;-81
2023/05/20 02:26:00;;;;;;;12.90;9.43;;;23.60;39.90;;;;;;4996655;28;20492;-81
2023/05/20 02:28:28;;;;;;;14.93;10.20;;;23.60;39.90;;;;;;4989336;28;20461;-81
2023/05/20 02:30:56;;;;;;;11.27;9.03;;;23.50;39.90;;;;;;4996713;28;20441;-81
2023/05/20 02:33:27;;;;;;;13.77;10.10;;;23.50;40.00;;;;;;4988773;28;20496;-81
2023/05/20 02:35:55;;;;;;;12.60;9.60;;;23.50;40.00;;;;;;4996439;28;20532;-81
2023/05/20 02:38:24;;;;;;;13.47;9.10;;;23.50;40.00;;;;;;4988065;28;20470;-81
2023/05/20 02:40:52;;;;;;;12.30;9.03;;;23.50;40.10;;;;;;4991609;28;20458;-81
2023/05/20 02:43:20;;;;;;;12.37;9.27;;;23.50;40.10;;;;;;4995618;28;20465;-81
2023/05/20 02:45:48;;;;;;;10.90;9.23;;;23.40;40.20;;;;;;4996465;28;20441;-81
2023/05/20 02:48:16;;;;;;;11.43;8.80;;;23.40;40.00;;;;;;4993949;28;20456;-81
2023/05/20 02:50:47;;;;;;;11.07;8.33;;;23.40;40.10;;;;;;4996103;28;20449;-81
2023/05/20 02:53:15;;;;;;;10.00;8.43;;;23.40;40.10;;;;;;4991348;28;20493;-82
2023/05/20 02:55:43;;;;;;;11.77;8.60;;;23.40;40.20;;;;;;4989556;28;20507;-81
2023/05/20 02:58:12;;;;;;;10.70;8.57;;;23.30;40.10;;;;;;4990480;28;20465;-81
2023/05/20 03:00:40;;;;;;;12.40;8.50;;;23.30;40.10;;;;;;4996069;28;20468;-81
2023/05/20 03:03:08;;;;;;;12.43;8.17;;;23.30;40.20;;;;;;4989091;28;20459;-82
2023/05/20 03:05:37;;;;;;;10.23;8.43;;;23.30;40.20;;;;;;4994495;28;20464;-80
2023/05/20 03:08:09;;;;;;;9.40;7.80;;;23.30;40.20;;;;;;4995439;28;20852;-81
2023/05/20 03:10:37;;;;;;;11.37;8.40;;;23.30;40.20;;;;;;4982988;28;20449;-80
2023/05/20 03:13:07;;;;;;;10.93;7.90;;;23.20;40.10;;;;;;4994380;28;20438;-81
2023/05/20 03:15:35;;;;;;;10.70;7.90;;;23.20;40.20;;;;;;4991332;28;20469;-82
2023/05/20 03:18:03;;;;;;;9.10;7.10;;;23.20;40.40;;;;;;4991596;28;20512;-79
2023/05/20 03:20:32;;;;;;;9.80;7.90;;;23.20;40.30;;;;;;4993190;28;20449;-80
2023/05/20 03:23:00;;;;;;;9.50;7.60;;;23.10;40.20;;;;;;4994213;28;20449;-81
2023/05/20 03:25:30;;;;;;;10.13;6.70;;;23.10;40.40;;;;;;4994920;28;20500;-80
2023/05/20 03:27:59;;;;;;;11.20;8.40;;;23.10;40.30;;;;;;4995116;28;20955;-81
2023/05/20 03:30:27;;;;;;;7.60;6.80;;;23.00;40.30;;;;;;4980877;28;20453;-81
2023/05/20 03:32:56;;;;;;;8.60;6.63;;;23.10;40.30;;;;;;4995738;28;20508;-82
2023/05/20 03:35:24;;;;;;;8.20;7.30;;;23.10;40.30;;;;;;4995479;28;20484;-81
2023/05/20 03:37:52;;;;;;;9.17;6.47;;;23.00;40.40;;;;;;4996900;28;20461;-80
2023/05/20 03:40:21;;;;;;;8.23;6.77;;;23.00;40.40;;;;;;4997325;28;20441;-79
2023/05/20 03:42:50;;;;;;;7.40;6.60;;;23.00;40.40;;;;;;4995543;28;20473;-81
2023/05/20 03:45:19;;;;;;;9.73;6.73;;;23.00;40.40;;;;;;4989516;28;20520;-80
2023/05/20 03:47:46;;;;;;;8.00;6.70;;;23.00;40.40;;;;;;4994015;28;20489;-81
2023/05/20 03:50:15;;;;;;;7.30;6.10;;;23.00;40.30;;;;;;4995453;28;20469;-80
2023/05/20 03:52:43;;;;;;;6.70;6.00;;;23.00;40.50;;;;;;4990323;28;20469;-80
2023/05/20 03:55:11;;;;;;;9.10;6.80;;;23.00;40.50;;;;;;4995030;28;20572;-82
2023/05/20 03:57:39;;;;;;;7.73;6.57;;;23.00;40.50;;;;;;5000213;28;20430;-82
2023/05/20 04:00:10;;;;;;;7.00;6.30;;;23.00;40.50;;;;;;4995131;28;20468;-80
2023/05/20 04:02:38;;;;;;;7.40;6.53;;;22.90;40.40;;;;;;4993387;28;20445;-79
2023/05/20 04:05:09;;;;;;;8.90;6.20;;;22.90;40.60;;;;;;4988826;28;20477;-80
2023/05/20 04:07:37;;;;;;;7.40;6.50;;;22.90;40.40;;;;;;4993868;28;20516;-82
2023/05/20 04:10:06;;;;;;;12.67;6.07;;;22.90;40.60;;;;;;4993250;28;20459;-79
2023/05/20 04:12:35;;;;;;;6.90;5.93;;;22.90;40.50;;;;;;4986275;28;20532;-80
2023/05/20 04:15:03;;;;;;;7.00;5.50;;;22.90;40.50;;;;;;4993181;28;20485;-80
2023/05/20 04:17:36;;;;;;;6.50;5.60;;;22.90;40.50;;;;;;4986203;28;20429;-82
2023/05/20 04:20:06;;;;;;;6.87;5.50;;;22.80;40.50;;;;;;4992535;28;20463;-80
2023/05/20 04:22:34;;;;;;;6.97;5.67;;;22.90;40.60;;;;;;4990451;28;20508;-80
2023/05/20 04:25:04;;;;;;;6.70;5.43;;;22.90;40.60;;;;;;4993939;28;20533;-79
2023/05/20 04:27:33;;;;;;;6.73;5.80;;;22.90;40.60;;;;;;4992063;28;20449;-79
2023/05/20 04:30:02;;;;;;;7.00;5.70;;;22.90;40.50;;;;;;4994060;28;20476;-80
2023/05/20 04:32:31;;;;;;;5.87;5.13;;;22.90;40.60;;;;;;4991685;28;20517;-80
2023/05/20 04:35:01;;;;;;;6.80;4.93;;;22.90;40.60;;;;;;4996402;28;20504;-80
2023/05/20 04:37:30;;;;;;;7.03;5.60;;;22.90;40.40;;;;;;4997607;28;20563;-79
2023/05/20 04:40:02;;;;;;;6.23;5.50;;;22.80;40.40;;;;;;4996250;28;20475;-80
2023/05/20 04:42:30;;;;;;;5.90;5.30;;;22.80;40.60;;;;;;4999412;28;20476;-82
2023/05/20 04:45:00;;;;;;;6.37;5.00;;;22.80;40.50;;;;;;5002886;28;20492;-82
2023/05/20 04:47:28;;;;;;;5.30;4.80;;;22.80;40.50;;;;;;5000376;28;20441;-80
2023/05/20 04:49:57;;;;;;;5.70;5.20;;;22.80;40.50;;;;;;5000577;28;20444;-80
2023/05/20 04:52:26;;;;;;;7.13;5.70;;;22.80;40.50;;;;;;4996904;28;20509;-80
2023/05/20 04:54:57;;;;;;;5.77;5.03;;;22.80;40.60;;;;;;4999572;28;20515;-81
2023/05/20 04:57:26;;;;;;;6.00;5.00;;;22.80;40.60;;;;;;5001385;28;20476;-80
2023/05/20 04:59:57;;;;;;;6.13;5.40;;;22.80;40.50;;;;;;5001984;28;20528;-81
2023/05/20 05:02:25;;;;;;;5.43;4.93;;;22.90;40.60;;;;;;5001386;28;20441;-80
2023/05/20 05:04:53;;;;;;;6.10;4.50;;;22.80;40.50;;;;;;5001921;28;20461;-80
2023/05/20 05:07:21;;;;;;;5.57;5.03;;;22.80;40.50;;;;;;5001551;28;20449;-80
2023/05/20 05:09:51;;;;;;;5.23;4.63;;;22.80;40.40;;;;;;4999204;28;20457;-80
2023/05/20 05:12:19;;;;;;;5.80;5.20;;;22.80;40.50;;;;;;5000589;28;20874;-81
2023/05/20 05:14:48;;;;;;;5.00;4.50;;;22.80;40.60;;;;;;5001073;28;20472;-80
2023/05/20 05:17:16;;;;;;;5.37;4.87;;;22.80;40.60;;;;;;5002234;28;20489;-81
2023/05/20 05:19:44;;;;;;;5.00;4.33;;;22.80;40.40;;;;;;5000575;28;20445;-80
2023/05/20 05:22:12;;;;;;;6.93;4.60;;;22.80;40.80;;;;;;4998779;28;20453;-83
2023/05/20 05:24:40;;;;;;;4.80;4.40;;;22.80;40.60;;;;;;4999835;28;20465;-81
2023/05/20 05:27:09;;;;;;;4.80;4.40;;;22.80;40.50;;;;;;4993847;28;20473;-81
2023/05/20 05:29:38;;;;;;;4.87;4.23;;;22.80;41.20;;;;;;4999267;28;20500;-81
2023/05/20 05:32:06;;;;;;;4.83;4.23;;;22.90;40.60;;;;;;4999860;28;20448;-81
2023/05/20 05:34:34;;;;;;;4.50;4.10;;;22.80;40.50;;;;;;4991616;28;20475;-81
2023/05/20 05:37:02;;;;;;;4.80;4.30;;;22.80;40.40;;;;;;4999429;28;20477;-81
2023/05/20 05:39:31;;;;;;;4.83;4.40;;;22.80;40.70;;;;;;4999766;28;20484;-81
2023/05/20 05:41:59;;;;;;;4.33;4.03;;;22.80;40.50;;;;;;4999647;28;20459;-82
2023/05/20 05:44:29;;;;;;;6.53;4.90;;;22.80;40.50;;;;;;4994393;28;20477;-81
2023/05/20 05:46:57;;;;;;;4.77;4.20;;;22.80;40.60;;;;;;4997059;28;20527;-81
2023/05/20 05:49:25;;;;;;;4.53;4.10;;;22.80;40.70;;;;;;4997787;28;20449;-80
2023/05/20 05:51:53;;;;;;;4.37;4.00;;;22.80;40.70;;;;;;4995828;28;20993;-83
2023/05/20 05:54:22;;;;;;;5.00;4.50;;;22.80;40.60;;;;;;4990294;28;20471;-81
2023/05/20 05:56:51;;;;;;;4.57;4.17;;;22.80;40.70;;;;;;4989598;28;20465;-81
2023/05/20 05:59:19;;;;;;;4.37;3.87;;;22.80;40.70;;;;;;4996198;28;20454;-81
2023/05/20 06:01:49;;;;;;;4.63;4.10;;;22.80;40.70;;;;;;4991329;28;20947;-82
2023/05/20 06:04:17;;;;;;;5.07;4.40;;;22.80;40.60;;;;;;4996046;28;20641;-81
2023/05/20 06:06:45;;;;;;;4.67;4.27;;;22.90;40.70;;;;;;4994460;28;20453;-81
2023/05/20 06:09:13;;;;;;;5.30;4.30;;;22.90;40.50;;;;;;4995305;28;20484;-81
2023/05/20 06:11:43;;;;;;;5.60;3.70;;;22.90;40.60;;;;;;4996433;28;20528;-83
2023/05/20 06:14:11;;;;;;;4.37;3.97;;;22.90;40.70;;;;;;4994518;28;20549;-82
2023/05/20 06:16:39;;;;;;;4.57;4.07;;;22.90;40.60;;;;;;4993430;28;20985;-81
2023/05/20 06:19:09;;;;;;;5.00;4.23;;;22.90;40.60;;;;;;4999259;28;20437;-82
2023/05/20 06:21:37;;;;;;;4.37;3.97;;;22.90;40.60;;;;;;4992078;28;20453;-83
2023/05/20 06:24:05;;;;;;;4.40;3.90;;;23.00;40.60;;;;;;4997949;28;20496;-81
2023/05/20 06:26:34;;;;;;;3.47;3.27;;;23.00;40.50;;;;;;4998371;28;20540;-82
2023/05/20 06:29:02;;;;;;;4.73;3.80;;;23.00;40.50;;;;;;4997847;28;20445;-81
2023/05/20 06:31:30;;;;;;;4.03;3.67;;;23.10;40.50;;;;;;4998287;28;20443;-82
2023/05/20 06:33:58;;;;;;;3.60;3.30;;;23.00;40.40;;;;;;4997464;28;20457;-81
2023/05/20 06:36:28;;;;;;;4.03;3.60;;;23.10;40.40;;;;;;4996761;28;20469;-83
2023/05/20 06:38:59;;;;;;;4.00;3.67;;;23.10;40.40;;;;;;4996912;28;20457;-83
2023/05/20 06:41:27;;;;;;;4.47;4.07;;;23.10;40.40;;;;;;4997726;28;20450;-82
2023/05/20 06:43:55;;;;;;;4.00;3.70;;;23.20;40.40;;;;;;4997526;28;20560;-81
2023/05/20 06:46:23;;;;;;;3.87;3.57;;;23.20;40.50;;;;;;4997175;28;20489;-80
2023/05/20 06:48:51;;;;;;;3.80;3.50;;;23.30;40.40;;;;;;4996809;28;20449;-82
2023/05/20 06:51:19;;;;;;;3.90;3.60;;;23.30;40.40;;;;;;4996656;28;20883;-78
2023/05/20 06:53:49;;;;;;;3.90;3.50;;;23.30;40.40;;;;;;4995665;28;20504;-80
2023/05/20 06:56:17;;;;;;;3.77;3.47;;;23.40;40.40;;;;;;4991790;28;20540;-80
2023/05/20 06:58:45;;;;;;;3.43;3.20;;;23.40;40.50;;;;;;4997110;28;20520;-81
2023/05/20 07:01:13;;;;;;;6.10;3.70;;;23.50;40.30;;;;;;4996091;28;20536;-80
2023/05/20 07:03:44;;;;;;;3.40;3.20;;;23.50;40.40;;;;;;5009793;28;20453;-81
2023/05/20 07:06:12;;;;;;;3.63;3.33;;;23.60;40.50;;;;;;4993113;28;20457;-78
2023/05/20 07:08:40;;;;;;;3.03;2.83;;;23.70;40.50;;;;;;5001320;28;20452;-81
2023/05/20 07:11:09;;;;;;;4.47;3.10;;;23.70;40.50;;;;;;4998174;28;20452;-80
2023/05/20 07:13:37;;;;;;;4.10;2.93;;;23.80;40.60;;;;;;4999564;28;20493;-79
2023/05/20 07:16:06;;;;;;;3.53;3.23;;;23.90;40.60;;;;;;5000803;28;20437;-81
2023/05/20 07:18:35;;;;;;;3.10;2.90;;;23.90;40.40;;;;;;5006017;28;20504;-81
2023/05/20 07:21:03;;;;;;;3.50;3.20;;;24.00;40.40;;;;;;5003280;28;20445;-81
2023/05/20 07:23:31;;;;;;;3.80;3.50;;;24.10;40.40;;;;;;5006766;28;20565;-80
2023/05/20 07:26:06;;;;;;;3.83;3.50;;;24.20;40.40;;;;;;5004989;28;20432;-80
2023/05/20 07:28:50;;;;;;;3.73;3.43;;;24.30;40.30;;;;;;4999677;28;20473;-80
2023/05/20 07:31:18;;;;;;;3.23;3.03;;;24.30;40.30;;;;;;5002015;28;20433;-81
2023/05/20 07:33:46;;;;;;;3.00;2.80;;;24.40;40.30;;;;;;5004794;28;20461;-79
2023/05/20 07:36:14;;;;;;;3.53;3.23;;;24.50;40.30;;;;;;5005588;28;20457;-81
2023/05/20 07:38:43;;;;;;;3.00;2.80;;;24.60;40.30;;;;;;5003124;28;20545;-79
2023/05/20 07:41:23;;;;;;;3.10;2.90;;;24.70;40.30;;;;;;5007733;28;20452;-79
2023/05/20 07:43:52;;;;;;;3.30;3.10;;;24.80;40.20;;;;;;5004129;28;20465;-82
2023/05/20 07:46:20;;;;;;;3.10;2.90;;;24.90;40.30;;;;;;4999479;28;20461;-81
2023/05/20 07:48:49;;;;;;;2.87;2.67;;;25.00;40.30;;;;;;5007234;28;20448;-78
2023/05/20 07:51:17;;;;;;;2.60;2.40;;;25.20;40.20;;;;;;4996894;28;20434;-80
2023/05/20 07:53:45;;;;;;;2.90;2.70;;;25.30;40.10;;;;;;5005004;28;20465;-82
2023/05/20 07:56:14;;;;;;;2.90;2.67;;;25.40;40.00;;;;;;5008176;28;20463;-79
2023/05/20 07:58:42;;;;;;;3.63;2.90;;;25.60;40.00;;;;;;5008384;28;20480;-80
2023/05/20 08:01:11;;;;;;;7.73;2.80;;;25.70;39.90;;;;;;5002213;28;20480;-80
2023/05/20 08:03:39;;;;;;;3.00;2.80;;;25.90;39.80;;;;;;4997177;28;20504;-80
2023/05/20 08:06:07;;;;;;;2.80;2.60;;;26.00;39.70;;;;;;4995118;28;20457;-81
2023/05/20 08:08:35;;;;;;;2.73;2.63;;;26.10;39.60;;;;;;4995292;28;20537;-80
2023/05/20 08:11:03;;;;;;;2.80;2.60;;;26.20;39.50;;;;;;4996244;28;20457;-82
2023/05/20 08:13:31;;;;;;;2.50;2.30;;;26.30;39.40;;;;;;4998176;28;20500;-81
2023/05/20 08:15:59;;;;;;;2.80;2.30;;;26.50;40.40;;;;;;4996788;28;20473;-80
2023/05/20 08:18:29;;;;;;;3.03;2.03;;;26.60;40.50;;;;;;4994476;28;20559;-79
2023/05/20 08:20:57;;;;;;;2.50;2.40;;;26.70;40.40;;;;;;4995671;28;20505;-79
2023/05/20 08:23:25;;;;;;;1.93;1.83;;;26.80;40.40;;;;;;4995946;28;20555;-81
2023/05/20 08:25:54;;;;;;;3.83;2.07;;;27.00;40.40;;;;;;4992095;28;20452;-79
2023/05/20 08:28:22;;;;;;;2.10;2.00;;;27.10;40.50;;;;;;4991961;28;20449;-80
2023/05/20 08:30:50;;;;;;;2.33;2.13;;;27.20;40.30;;;;;;4993625;28;20499;-79
2023/05/20 08:33:20;;;;;;;7.40;2.23;;;27.30;40.30;;;;;;4992834;28;20484;-78
2023/05/20 08:35:50;;;;;;;2.00;1.90;;;27.40;40.20;;;;;;4982254;28;20420;-79
2023/05/20 08:38:17;;;;;;;3.47;1.90;;;27.50;40.10;;;;;;4990314;28;20504;-78
2023/05/20 08:40:45;;;;;;;4.20;1.93;;;27.60;40.10;;;;;;4984190;28;20520;-79
2023/05/20 08:43:13;;;;;;;2.80;2.10;;;27.70;39.90;;;;;;4983188;28;20552;-79
2023/05/20 08:45:42;;;;;;;4.57;2.20;;;27.70;39.80;;;;;;4986320;28;20433;-79
2023/05/20 08:48:10;;;;;;;2.27;2.17;;;27.80;39.70;;;;;;4988446;28;20496;-79
2023/05/20 08:50:39;;;;;;;2.43;2.23;;;27.90;39.70;;;;;;4985647;28;20468;-80
2023/05/20 08:53:09;;;;;;;2.43;1.73;;;27.90;39.60;;;;;;4986081;28;20500;-78
2023/05/20 08:55:40;;;;;;;3.30;1.80;;;28.00;39.50;;;;;;4985512;28;20462;-79
2023/05/20 08:58:09;;;;;;;3.43;1.83;;;28.10;39.30;;;;;;4987291;28;20471;-79
2023/05/20 09:00:37;;;;;;;4.30;1.93;;;28.20;39.20;;;;;;4991274;28;20453;-79
2023/05/20 09:03:05;;;;;;;1.90;1.80;;;28.30;39.20;;;;;;4989055;28;20449;-80
2023/05/20 09:05:33;;;;;;;9.33;2.13;;;28.40;39.10;;;;;;4990071;28;20416;-80
2023/05/20 09:08:06;;;;;;;3.93;2.10;;;28.40;39.00;;;;;;4989829;28;20457;-79
2023/05/20 09:10:37;;;;;;;5.47;1.70;;;28.50;39.00;;;;;;4986874;28;20457;-81
2023/05/20 09:13:05;;;;;;;9.20;2.00;;;28.50;38.80;;;;;;4988879;28;20449;-80
2023/05/20 09:15:33;;;;;;;2.63;1.60;;;28.60;38.80;;;;;;4981971;28;20480;-79
2023/05/20 09:18:02;;;;;;;2.03;1.73;;;28.70;38.60;;;;;;4988836;28;20481;-79
2023/05/20 09:20:30;;;;;;;4.20;1.80;;;28.70;39.10;;;;;;4995321;28;20454;-79
2023/05/20 09:22:59;;;;;;;1.70;1.60;;;28.80;38.50;;;;;;4993090;28;20839;-80
2023/05/20 09:25:27;;;;;;;1.53;1.50;;;28.90;38.30;;;;;;4994830;28;20503;-78
2023/05/20 09:27:57;;;;;;;2.27;1.87;;;28.90;38.30;;;;;;4987777;28;20491;-79
2023/05/20 09:30:25;;;;;;;2.70;1.97;;;28.90;38.00;;;;;;4992505;28;20455;-80
2023/05/20 09:32:54;;;;;;;3.30;1.87;;;28.90;38.20;;;;;;4994014;28;20424;-79
2023/05/20 09:35:23;;;;;;;4.10;1.87;;;29.00;38.10;;;;;;4989705;28;20449;-79
2023/05/20 09:37:52;;;;;;;1.53;1.43;;;28.90;38.20;;;;;;4995270;28;20515;-80
2023/05/20 09:40:23;;;;;;;2.03;1.90;;;29.00;38.20;;;;;;4993125;28;20420;-79
2023/05/20 09:42:53;;;;;;;1.70;1.60;;;29.20;37.90;;;;;;4998253;28;20875;-80
2023/05/20 09:45:23;;;;;;;4.27;1.60;;;29.30;37.50;;;;;;4994486;28;20483;-79
2023/05/20 09:47:52;;;;;;;1.90;1.60;;;29.30;37.80;;;;;;4986592;28;20416;-79
2023/05/20 09:50:21;;;;;;;1.77;1.67;;;29.20;37.60;;;;;;4993425;28;20437;-78
2023/05/20 09:52:49;;;;;;;2.23;1.73;;;29.30;37.80;;;;;;4997229;28;20416;-79
2023/05/20 09:55:18;;;;;;;7.70;2.03;;;29.50;37.60;;;;;;4992860;28;20447;-78
2023/05/20 09:57:46;;;;;;;4.60;2.50;;;29.60;37.70;;;;;;4998541;28;20868;-78
2023/05/20 10:00:16;;;;;;;6.00;2.37;;;29.60;37.30;;;;;;4998969;28;20551;-79
2023/05/20 10:02:46;;;;;;;12.03;2.50;;;29.70;37.20;;;;;;4996368;28;20495;-80
2023/05/20 10:05:17;;;;;;;10.83;2.57;;;29.80;37.10;;;;;;5000251;28;20444;-79
2023/05/20 10:08:12;;;;;;;7.37;2.43;;;29.80;36.80;;;;;;4998974;28;20449;-79
2023/05/20 10:10:44;;;;;;;7.43;2.60;;;29.90;36.70;;;;;;5001410;28;20483;-79
2023/05/20 10:13:19;;;;;;;3.73;2.40;;;29.90;36.50;;;;;;5002803;28;20483;-78
2023/05/20 10:15:53;;;;;;;4.70;2.20;;;30.00;35.90;;;;;;4999151;28;20447;-79
2023/05/20 10:18:29;;;;;;;9.73;2.23;;;30.00;34.90;;;;;;4996972;28;20455;-79
2023/05/20 10:20:57;;;;;;;6.83;2.20;;;30.00;34.30;;;;;;4996563;28;20469;-79
2023/05/20 10:23:28;;;;;;;10.03;2.43;;;30.00;34.20;;;;;;5002114;28;20507;-78
2023/05/20 10:25:58;;;;;;;3.63;2.10;;;30.10;34.00;;;;;;5000595;28;20438;-79
2023/05/20 10:28:29;;;;;;;6.90;2.30;;;30.20;33.50;;;;;;5006809;28;20449;-79
2023/05/20 10:30:57;;;;;;;7.00;2.03;;;30.20;33.20;;;;;;4998423;28;20431;-79
2023/05/20 10:33:27;;;;;;;9.13;7.53;;;30.10;32.60;;;;;;5004991;28;20454;-80
2023/05/20 10:35:58;;;;;;;8.83;6.97;;;30.10;32.30;;;;;;5001804;28;20420;-79
2023/05/20 10:38:26;;;;;;;8.17;7.27;;;29.90;32.10;;;;;;4994390;28;20424;-80
2023/05/20 10:40:56;;;;;;;6.60;5.90;;;29.90;32.10;;;;;;4996291;28;20449;-80
2023/05/20 10:43:27;;;;;;;7.37;5.17;;;29.80;31.80;;;;;;5003417;28;20561;-80
2023/05/20 10:45:57;;;;;;;7.13;4.33;;;29.80;31.80;;;;;;4997951;28;20508;-82
2023/05/20 10:48:27;;;;;;;4.73;4.23;;;29.70;31.60;;;;;;5004948;28;20490;-80
2023/05/20 10:50:56;;;;;;;3.63;2.80;;;29.60;31.40;;;;;;4989764;28;20482;-81
2023/05/20 10:53:26;;;;;;;4.50;3.10;;;29.40;31.40;;;;;;5002160;28;20528;-81
2023/05/20 10:56:01;;;;;;;4.50;3.10;;;29.50;31.40;;;;;;4993872;28;20457;-81
2023/05/20 10:58:36;;;;;;;3.23;2.10;;;29.50;31.50;;;;;;4991430;28;20453;-81
2023/05/20 11:01:04;;;;;;;2.83;2.03;;;29.70;31.10;;;;;;4994477;28;20437;-82
2023/05/20 11:03:34;;;;;;;2.87;2.23;;;29.70;31.00;;;;;;5001742;28;20470;-80
2023/05/20 11:06:10;;;;;;;2.10;2.00;;;29.70;30.70;;;;;;4996834;28;20447;-79
2023/05/20 11:08:38;;;;;;;3.23;1.70;;;29.60;30.50;;;;;;5001578;28;20495;-79
2023/05/20 11:11:07;;;;;;;2.60;2.00;;;29.50;30.60;;;;;;5001102;28;20476;-78
2023/05/20 11:13:35;;;;;;;3.10;1.80;;;29.60;30.70;;;;;;5002863;28;20444;-79
2023/05/20 11:16:03;;;;;;;2.63;1.90;;;29.60;31.20;;;;;;5001275;28;20424;-79
2023/05/20 11:18:32;;;;;;;1.43;1.33;;;29.80;30.20;;;;;;4993178;28;20904;-79
2023/05/20 11:21:01;;;;;;;2.93;1.70;;;29.90;30.00;;;;;;4998821;28;20478;-79
2023/05/20 11:23:30;;;;;;;3.07;1.90;;;29.90;29.80;;;;;;4997051;28;20444;-79
2023/05/20 11:25:58;;;;;;;4.17;1.87;;;30.10;29.80;;;;;;5000818;28;20475;-79
2023/05/20 11:28:27;;;;;;;2.33;1.87;;;30.10;29.70;;;;;;5004467;28;20507;-80
2023/05/20 11:30:55;;;;;;;3.27;1.90;;;30.20;29.50;;;;;;4997134;28;20487;-82
2023/05/20 11:33:25;;;;;;;3.43;2.10;;;30.60;30.40;;;;;;4998252;28;20439;-82
2023/05/20 11:35:53;;;;;;;1.60;1.50;;;31.10;29.80;;;;;;4988997;28;20474;-81
2023/05/20 11:38:23;;;;;;;3.93;1.57;;;32.00;29.70;;;;;;4999282;28;20466;-82
2023/05/20 11:40:52;;;;;;;1.60;1.50;;;32.60;29.00;;;;;;4996694;28;20519;-81
2023/05/20 11:43:21;;;;;;;1.80;1.50;;;32.90;28.00;;;;;;4993392;28;20524;-81
2023/05/20 11:45:53;;;;;;;2.53;1.53;;;32.90;27.70;;;;;;4999177;28;20442;-81
2023/05/20 11:48:21;;;;;;;3.60;1.53;;;33.30;28.00;;;;;;4996520;28;20448;-82
2023/05/20 11:50:48;;;;;;;4.50;1.73;;;33.40;27.20;;;;;;4998372;28;20444;-81
2023/05/20 11:53:17;;;;;;;2.20;1.77;;;33.20;27.10;;;;;;4996520;28;20473;-80
2023/05/20 11:55:48;;;;;;;2.27;1.90;;;33.00;27.00;;;;;;4993939;28;20469;-81
2023/05/20 11:58:16;;;;;;;2.30;1.97;;;33.20;27.70;;;;;;4995243;28;20496;-81
2023/05/20 12:00:45;;;;;;;4.10;1.70;;;33.40;26.90;;;;;;4995180;28;20445;-80
2023/05/20 12:03:21;;;;;;;2.20;1.70;;;33.20;27.30;;;;;;4998090;28;20536;-81
2023/05/20 12:05:50;;;;;;;3.10;1.93;;;32.90;26.50;;;;;;5000522;28;20520;-81
2023/05/20 12:08:18;;;;;;;1.97;1.87;;;33.00;27.30;;;;;;5000874;28;20460;-81
2023/05/20 12:10:47;;;;;;;5.53;1.40;;;33.40;27.60;;;;;;5000761;28;20474;-81
2023/05/20 12:13:15;;;;;;;4.93;1.63;;;33.30;26.10;;;;;;4999479;28;20546;-81
2023/05/20 12:15:43;;;;;;;5.13;1.80;;;33.60;26.40;;;;;;4994240;28;20425;-81
2023/05/20 12:18:11;;;;;;;2.53;1.53;;;33.40;26.20;;;;;;5000448;28;20445;-81
2023/05/20 12:20:39;;;;;;;2.93;1.40;;;33.10;26.30;;;;;;5001324;28;20493;-81
2023/05/20 12:23:08;;;;;;;2.50;1.40;;;32.80;26.30;;;;;;4996443;28;20484;-81
2023/05/20 12:25:36;;;;;;;2.43;1.60;;;32.60;26.60;;;;;;4994357;28;20487;-81
2023/05/20 12:28:05;;;;;;;5.40;1.20;;;33.30;26.50;;;;;;5004604;28;20444;-81
2023/05/20 12:30:34;;;;;;;4.10;1.43;;;33.80;26.00;;;;;;5002736;28;20453;-81
2023/05/20 12:33:02;;;;;;;1.70;1.60;;;33.50;26.20;;;;;;4997671;28;20480;-80
2023/05/20 12:35:37;;;;;;;1.83;1.73;;;33.10;26.30;;;;;;5004202;28;20807;-79
2023/05/20 12:38:05;;;;;;;3.33;2.00;;;32.70;26.40;;;;;;5005639;28;20456;-80
2023/05/20 12:40:33;;;;;;;2.07;1.60;;;32.40;26.60;;;;;;5005266;28;20485;-81
2023/05/20 12:43:02;;;;;;;4.20;2.27;;;32.10;27.00;;;;;;5006211;28;20537;-81
2023/05/20 12:45:32;;;;;;;3.33;2.00;;;31.80;27.20;;;;;;5006440;28;20491;-81
2023/05/20 12:48:00;;;;;;;2.87;2.57;;;31.50;27.40;;;;;;5006467;28;20437;-81
2023/05/20 12:50:28;;;;;;;2.63;2.50;;;31.40;27.50;;;;;;5006617;28;20437;-80
2023/05/20 12:52:56;;;;;;;2.93;2.20;;;31.30;27.70;;;;;;5006509;28;20445;-80
2023/05/20 12:55:24;;;;;;;5.57;5.07;;;31.50;28.00;;;;;;5009719;28;20420;-81